sensor_id;sensor_type;location;lat;lon;timestamp;pressure;altitude;pressure_sealevel;temperature
63689;BMP280;54895;40.928;14.480;2022-11-20T00:01:21;100319.34;;;19.78
63689;BMP280;54895;40.928;14.480;2022-11-20T00:03:47;100321.94;;;19.76
63689;BMP280;54895;40.928;14.480;2022-11-20T00:06:17;100321.94;;;19.88
63689;BMP280;54895;40.928;14.480;2022-11-20T00:08:44;100323.59;;;19.81
63689;BMP280;54895;40.928;14.480;2022-11-20T00:11:13;100318.91;;;19.93
63689;BMP280;54895;40.928;14.480;2022-11-20T00:17:24;100332.28;;;20.03
63689;BMP280;54895;40.928;14.480;2022-11-20T00:19:50;100330.84;;;19.90
63689;BMP280;54895;40.928;14.480;2022-11-20T00:22:17;100318.28;;;19.60
63689;BMP280;54895;40.928;14.480;2022-11-20T00:24:44;100307.38;;;19.70
63689;BMP280;54895;40.928;14.480;2022-11-20T00:27:10;100296.09;;;19.62
63689;BMP280;54895;40.928;14.480;2022-11-20T00:29:36;100293.53;;;19.75
63689;BMP280;54895;40.928;14.480;2022-11-20T00:32:03;100297.41;;;19.72
63689;BMP280;54895;40.928;14.480;2022-11-20T00:34:29;100296.09;;;19.73
63689;BMP280;54895;40.928;14.480;2022-11-20T00:36:56;100305.84;;;19.78
63689;BMP280;54895;40.928;14.480;2022-11-20T00:39:22;100294.34;;;19.66
63689;BMP280;54895;40.928;14.480;2022-11-20T00:41:49;100283.66;;;19.45
63689;BMP280;54895;40.928;14.480;2022-11-20T00:44:16;100256.53;;;18.99
63689;BMP280;54895;40.928;14.480;2022-11-20T00:46:42;100247.72;;;19.20
63689;BMP280;54895;40.928;14.480;2022-11-20T00:49:09;100251.91;;;19.11
63689;BMP280;54895;40.928;14.480;2022-11-20T00:51:35;100245.13;;;19.10
63689;BMP280;54895;40.928;14.480;2022-11-20T00:54:02;100236.75;;;19.06
63689;BMP280;54895;40.928;14.480;2022-11-20T00:56:28;100238.53;;;19.13
63689;BMP280;54895;40.928;14.480;2022-11-20T00:58:55;100247.22;;;19.23
63689;BMP280;54895;40.928;14.480;2022-11-20T01:01:24;100248.53;;;19.22
63689;BMP280;54895;40.928;14.480;2022-11-20T01:03:52;100230.75;;;18.96
63689;BMP280;54895;40.928;14.480;2022-11-20T01:06:22;100226.78;;;18.97
63689;BMP280;54895;40.928;14.480;2022-11-20T01:08:49;100213.63;;;18.92
63689;BMP280;54895;40.928;14.480;2022-11-20T01:11:19;100218.59;;;19.07
63689;BMP280;54895;40.928;14.480;2022-11-20T01:17:17;100234.56;;;19.26
63689;BMP280;54895;40.928;14.480;2022-11-20T01:19:43;100250.81;;;19.37
63689;BMP280;54895;40.928;14.480;2022-11-20T01:22:10;100234.06;;;19.06
63689;BMP280;54895;40.928;14.480;2022-11-20T01:24:36;100239.00;;;19.10
63689;BMP280;54895;40.928;14.480;2022-11-20T01:27:03;100210.00;;;18.87
63689;BMP280;54895;40.928;14.480;2022-11-20T01:29:29;100194.13;;;18.71
63689;BMP280;54895;40.928;14.480;2022-11-20T01:31:55;100187.72;;;18.55
63689;BMP280;54895;40.928;14.480;2022-11-20T01:34:22;100180.56;;;18.27
63689;BMP280;54895;40.928;14.480;2022-11-20T01:36:49;100162.66;;;18.10
63689;BMP280;54895;40.928;14.480;2022-11-20T01:39:19;100141.44;;;18.05
63689;BMP280;54895;40.928;14.480;2022-11-20T01:41:46;100150.16;;;18.15
63689;BMP280;54895;40.928;14.480;2022-11-20T01:44:53;100143.50;;;18.16
63689;BMP280;54895;40.928;14.480;2022-11-20T01:50:05;100148.75;;;17.93
63689;BMP280;54895;40.928;14.480;2022-11-20T01:52:41;100158.97;;;18.15
63689;BMP280;54895;40.928;14.480;2022-11-20T01:55:13;100148.88;;;18.16
63689;BMP280;54895;40.928;14.480;2022-11-20T01:57:40;100168.56;;;18.39
63689;BMP280;54895;40.928;14.480;2022-11-20T02:00:11;100182.72;;;18.40
63689;BMP280;54895;40.928;14.480;2022-11-20T02:02:44;100194.63;;;18.37
63689;BMP280;54895;40.928;14.480;2022-11-20T02:05:22;100210.28;;;18.71
63689;BMP280;54895;40.928;14.480;2022-11-20T02:07:50;100239.47;;;19.06
63689;BMP280;54895;40.928;14.480;2022-11-20T02:10:16;100240.22;;;18.86
63689;BMP280;54895;40.928;14.480;2022-11-20T02:12:43;100201.44;;;18.38
63689;BMP280;54895;40.928;14.480;2022-11-20T02:16:27;100182.88;;;18.21
63689;BMP280;54895;40.928;14.480;2022-11-20T02:18:57;100148.56;;;18.00
63689;BMP280;54895;40.928;14.480;2022-11-20T02:24:32;100150.94;;;18.06
63689;BMP280;54895;40.928;14.480;2022-11-20T02:27:03;100138.22;;;17.97
63689;BMP280;54895;40.928;14.480;2022-11-20T02:29:42;100144.13;;;17.84
63689;BMP280;54895;40.928;14.480;2022-11-20T02:32:34;100122.31;;;17.59
63689;BMP280;54895;40.928;14.480;2022-11-20T02:37:47;100086.41;;;17.45
63689;BMP280;54895;40.928;14.480;2022-11-20T02:40:14;100100.69;;;17.47
63689;BMP280;54895;40.928;14.480;2022-11-20T02:42:41;100093.75;;;17.54
63689;BMP280;54895;40.928;14.480;2022-11-20T02:45:08;100089.94;;;17.47
63689;BMP280;54895;40.928;14.480;2022-11-20T02:47:35;100119.66;;;17.80
63689;BMP280;54895;40.928;14.480;2022-11-20T02:50:03;100110.44;;;17.52
63689;BMP280;54895;40.928;14.480;2022-11-20T02:52:30;100100.38;;;17.53
63689;BMP280;54895;40.928;14.480;2022-11-20T02:54:57;100082.19;;;17.42
63689;BMP280;54895;40.928;14.480;2022-11-20T02:57:24;100100.78;;;17.59
63689;BMP280;54895;40.928;14.480;2022-11-20T02:59:51;100080.88;;;17.22
63689;BMP280;54895;40.928;14.480;2022-11-20T03:02:17;100079.16;;;17.26
63689;BMP280;54895;40.928;14.480;2022-11-20T03:04:44;100078.69;;;17.30
63689;BMP280;54895;40.928;14.480;2022-11-20T03:07:11;100082.94;;;17.33
63689;BMP280;54895;40.928;14.480;2022-11-20T03:09:38;100114.22;;;17.59
63689;BMP280;54895;40.928;14.480;2022-11-20T03:12:05;100144.84;;;17.84
63689;BMP280;54895;40.928;14.480;2022-11-20T03:14:32;100117.28;;;17.44
63689;BMP280;54895;40.928;14.480;2022-11-20T03:16:58;100112.59;;;17.44
63689;BMP280;54895;40.928;14.480;2022-11-20T03:19:25;100101.88;;;17.35
63689;BMP280;54895;40.928;14.480;2022-11-20T03:21:52;100105.00;;;17.31
63689;BMP280;54895;40.928;14.480;2022-11-20T03:24:19;100099.53;;;17.20
63689;BMP280;54895;40.928;14.480;2022-11-20T03:26:46;100103.88;;;17.34
63689;BMP280;54895;40.928;14.480;2022-11-20T03:29:13;100064.78;;;17.03
63689;BMP280;54895;40.928;14.480;2022-11-20T03:31:40;100097.63;;;17.41
63689;BMP280;54895;40.928;14.480;2022-11-20T03:34:09;100121.16;;;17.62
63689;BMP280;54895;40.928;14.480;2022-11-20T03:36:41;100111.44;;;17.47
63689;BMP280;54895;40.928;14.480;2022-11-20T03:39:09;100104.22;;;17.50
63689;BMP280;54895;40.928;14.480;2022-11-20T03:41:38;100141.06;;;17.68
63689;BMP280;54895;40.928;14.480;2022-11-20T03:44:06;100141.06;;;17.68
63689;BMP280;54895;40.928;14.480;2022-11-20T03:46:33;100138.19;;;17.55
63689;BMP280;54895;40.928;14.480;2022-11-20T03:49:00;100140.06;;;17.43
63689;BMP280;54895;40.928;14.480;2022-11-20T03:51:29;100111.75;;;17.02
63689;BMP280;54895;40.928;14.480;2022-11-20T03:53:59;100112.63;;;16.95
63689;BMP280;54895;40.928;14.480;2022-11-20T03:56:29;100098.22;;;16.71
63689;BMP280;54895;40.928;14.480;2022-11-20T03:58:56;100084.13;;;16.71
63689;BMP280;54895;40.928;14.480;2022-11-20T04:01:27;100070.25;;;16.65
63689;BMP280;54895;40.928;14.480;2022-11-20T04:03:55;100075.22;;;16.68
63689;BMP280;54895;40.928;14.480;2022-11-20T04:06:36;100030.75;;;16.37
63689;BMP280;54895;40.928;14.480;2022-11-20T04:09:04;100026.59;;;16.55
63689;BMP280;54895;40.928;14.480;2022-11-20T04:11:34;100031.13;;;16.62
63689;BMP280;54895;40.928;14.480;2022-11-20T04:14:03;100022.38;;;16.52
63689;BMP280;54895;40.928;14.480;2022-11-20T04:16:34;100034.66;;;16.74
63689;BMP280;54895;40.928;14.480;2022-11-20T04:19:03;100078.63;;;17.09
63689;BMP280;54895;40.928;14.480;2022-11-20T04:21:30;100108.88;;;17.19
63689;BMP280;54895;40.928;14.480;2022-11-20T04:23:57;100091.69;;;17.03
63689;BMP280;54895;40.928;14.480;2022-11-20T04:26:26;100082.38;;;16.85
63689;BMP280;54895;40.928;14.480;2022-11-20T04:28:53;100101.44;;;17.08
63689;BMP280;54895;40.928;14.480;2022-11-20T04:31:22;100121.25;;;17.03
63689;BMP280;54895;40.928;14.480;2022-11-20T04:33:50;100061.50;;;16.74
63689;BMP280;54895;40.928;14.480;2022-11-20T04:36:24;100057.13;;;16.78
63689;BMP280;54895;40.928;14.480;2022-11-20T04:38:53;100055.25;;;16.81
63689;BMP280;54895;40.928;14.480;2022-11-20T04:41:22;100086.47;;;16.95
63689;BMP280;54895;40.928;14.480;2022-11-20T04:43:51;100080.78;;;17.01
63689;BMP280;54895;40.928;14.480;2022-11-20T04:46:20;100089.38;;;17.09
63689;BMP280;54895;40.928;14.480;2022-11-20T04:48:47;100084.47;;;17.05
63689;BMP280;54895;40.928;14.480;2022-11-20T04:51:14;100110.03;;;17.16
63689;BMP280;54895;40.928;14.480;2022-11-20T04:53:41;100099.59;;;17.01
63689;BMP280;54895;40.928;14.480;2022-11-20T04:56:09;100090.03;;;16.79
63689;BMP280;54895;40.928;14.480;2022-11-20T04:58:37;100072.25;;;16.74
63689;BMP280;54895;40.928;14.480;2022-11-20T05:01:06;100040.88;;;16.67
63689;BMP280;54895;40.928;14.480;2022-11-20T05:03:33;100035.66;;;16.50
63689;BMP280;54895;40.928;14.480;2022-11-20T05:06:01;100021.94;;;16.46
63689;BMP280;54895;40.928;14.480;2022-11-20T05:08:30;100025.44;;;16.67
63689;BMP280;54895;40.928;14.480;2022-11-20T05:11:23;100056.00;;;16.53
63689;BMP280;54895;40.928;14.480;2022-11-20T05:13:51;100041.75;;;16.03
63689;BMP280;54895;40.928;14.480;2022-11-20T05:16:21;99982.28;;;15.78
63689;BMP280;54895;40.928;14.480;2022-11-20T05:18:49;100020.41;;;16.15
63689;BMP280;54895;40.928;14.480;2022-11-20T05:21:16;100036.09;;;16.18
63689;BMP280;54895;40.928;14.480;2022-11-20T05:23:44;100044.16;;;16.37
63689;BMP280;54895;40.928;14.480;2022-11-20T05:26:19;100026.59;;;16.55
63689;BMP280;54895;40.928;14.480;2022-11-20T05:28:48;100045.19;;;16.81
63689;BMP280;54895;40.928;14.480;2022-11-20T05:31:23;100050.56;;;16.91
63689;BMP280;54895;40.928;14.480;2022-11-20T05:33:51;100056.88;;;17.05
63689;BMP280;54895;40.928;14.480;2022-11-20T05:36:18;100031.88;;;16.93
63689;BMP280;54895;40.928;14.480;2022-11-20T05:38:45;100055.25;;;17.21
63689;BMP280;54895;40.928;14.480;2022-11-20T05:41:18;100056.97;;;17.16
63689;BMP280;54895;40.928;14.480;2022-11-20T05:43:46;100054.09;;;16.84
63689;BMP280;54895;40.928;14.480;2022-11-20T05:46:16;99988.31;;;16.45
63689;BMP280;54895;40.928;14.480;2022-11-20T05:48:44;99979.53;;;16.54
63689;BMP280;54895;40.928;14.480;2022-11-20T05:51:14;99986.56;;;16.78
63689;BMP280;54895;40.928;14.480;2022-11-20T05:53:42;100055.31;;;17.42
63689;BMP280;54895;40.928;14.480;2022-11-20T05:56:11;100112.59;;;17.75
63689;BMP280;54895;40.928;14.480;2022-11-20T05:58:39;100112.34;;;17.71
63689;BMP280;54895;40.928;14.480;2022-11-20T06:01:14;100074.50;;;17.48
63689;BMP280;54895;40.928;14.480;2022-11-20T06:03:42;100073.97;;;17.40
63689;BMP280;54895;40.928;14.480;2022-11-20T06:06:16;100084.72;;;17.40
63689;BMP280;54895;40.928;14.480;2022-11-20T06:08:44;100061.81;;;17.39
63689;BMP280;54895;40.928;14.480;2022-11-20T06:11:12;100053.34;;;17.42
63689;BMP280;54895;40.928;14.480;2022-11-20T06:13:40;100054.81;;;17.55
63689;BMP280;54895;40.928;14.480;2022-11-20T06:16:07;100039.94;;;17.23
63689;BMP280;54895;40.928;14.480;2022-11-20T06:18:34;100035.28;;;17.24
63689;BMP280;54895;40.928;14.480;2022-11-20T06:21:04;100034.75;;;17.16
63689;BMP280;54895;40.928;14.480;2022-11-20T06:23:32;100005.97;;;16.97
63689;BMP280;54895;40.928;14.480;2022-11-20T06:26:04;100010.19;;;17.00
63689;BMP280;54895;40.928;14.480;2022-11-20T06:28:31;100007.69;;;16.93
63689;BMP280;54895;40.928;14.480;2022-11-20T06:30:58;100003.19;;;16.86
63689;BMP280;54895;40.928;14.480;2022-11-20T06:33:25;100011.34;;;17.07
63689;BMP280;54895;40.928;14.480;2022-11-20T06:35:52;100017.09;;;17.13
63689;BMP280;54895;40.928;14.480;2022-11-20T06:38:23;99999.44;;;16.70
63689;BMP280;54895;40.928;14.480;2022-11-20T06:40:50;100001.84;;;16.66
63689;BMP280;54895;40.928;14.480;2022-11-20T06:43:17;99994.34;;;16.74
63689;BMP280;54895;40.928;14.480;2022-11-20T06:45:44;100010.91;;;17.01
63689;BMP280;54895;40.928;14.480;2022-11-20T06:48:11;100013.94;;;16.86
63689;BMP280;54895;40.928;14.480;2022-11-20T06:50:38;100003.94;;;16.77
63689;BMP280;54895;40.928;14.480;2022-11-20T06:53:05;100017.44;;;16.98
63689;BMP280;54895;40.928;14.480;2022-11-20T06:55:32;100004.88;;;16.91
63689;BMP280;54895;40.928;14.480;2022-11-20T06:57:58;100030.66;;;17.15
63689;BMP280;54895;40.928;14.480;2022-11-20T07:00:25;100032.22;;;17.18
63689;BMP280;54895;40.928;14.480;2022-11-20T07:02:52;100050.97;;;17.27
63689;BMP280;54895;40.928;14.480;2022-11-20T07:05:19;100044.09;;;17.15
63689;BMP280;54895;40.928;14.480;2022-11-20T07:07:47;100027.66;;;16.90
63689;BMP280;54895;40.928;14.480;2022-11-20T07:10:14;100012.25;;;16.81
63689;BMP280;54895;40.928;14.480;2022-11-20T07:12:41;100022.59;;;16.75
63689;BMP280;54895;40.928;14.480;2022-11-20T07:15:08;100023.00;;;16.81
63689;BMP280;54895;40.928;14.480;2022-11-20T07:17:35;100009.72;;;16.83
63689;BMP280;54895;40.928;14.480;2022-11-20T07:20:02;100011.91;;;16.96
63689;BMP280;54895;40.928;14.480;2022-11-20T07:22:29;100035.16;;;17.22
63689;BMP280;54895;40.928;14.480;2022-11-20T07:24:57;100044.53;;;17.11
63689;BMP280;54895;40.928;14.480;2022-11-20T07:27:23;100047.41;;;17.04
63689;BMP280;54895;40.928;14.480;2022-11-20T07:29:50;100061.44;;;17.33
63689;BMP280;54895;40.928;14.480;2022-11-20T07:32:17;100091.13;;;17.35
63689;BMP280;54895;40.928;14.480;2022-11-20T07:34:44;100082.63;;;17.08
63689;BMP280;54895;40.928;14.480;2022-11-20T07:37:11;100064.88;;;17.14
63689;BMP280;54895;40.928;14.480;2022-11-20T07:39:38;100071.53;;;17.23
63689;BMP280;54895;40.928;14.480;2022-11-20T07:42:09;100076.56;;;17.38
63689;BMP280;54895;40.928;14.480;2022-11-20T07:44:38;100085.91;;;17.37
63689;BMP280;54895;40.928;14.480;2022-11-20T07:47:05;100102.66;;;17.56
63689;BMP280;54895;40.928;14.480;2022-11-20T07:49:32;100157.34;;;18.01
63689;BMP280;54895;40.928;14.480;2022-11-20T07:51:59;100159.88;;;17.78
63689;BMP280;54895;40.928;14.480;2022-11-20T07:54:26;100121.22;;;17.43
63689;BMP280;54895;40.928;14.480;2022-11-20T07:56:53;100093.31;;;17.27
63689;BMP280;54895;40.928;14.480;2022-11-20T07:59:20;100097.50;;;17.30
63689;BMP280;54895;40.928;14.480;2022-11-20T08:01:47;100095.84;;;17.25
63689;BMP280;54895;40.928;14.480;2022-11-20T08:04:14;100103.44;;;17.38
63689;BMP280;54895;40.928;14.480;2022-11-20T08:06:42;100099.81;;;17.24
63689;BMP280;54895;40.928;14.480;2022-11-20T08:09:09;100083.41;;;17.20
63689;BMP280;54895;40.928;14.480;2022-11-20T08:11:36;100076.59;;;17.19
63689;BMP280;54895;40.928;14.480;2022-11-20T08:14:21;100073.63;;;17.24
63689;BMP280;54895;40.928;14.480;2022-11-20T08:16:49;100095.38;;;17.38
63689;BMP280;54895;40.928;14.480;2022-11-20T08:19:17;100089.72;;;17.34
63689;BMP280;54895;40.928;14.480;2022-11-20T08:21:45;100098.94;;;17.61
63689;BMP280;54895;40.928;14.480;2022-11-20T08:24:11;100111.84;;;17.84
63689;BMP280;54895;40.928;14.480;2022-11-20T08:26:39;100166.66;;;17.79
63689;BMP280;54895;40.928;14.480;2022-11-20T08:29:06;100141.94;;;17.92
63689;BMP280;54895;40.928;14.480;2022-11-20T08:31:33;100148.66;;;17.81
63689;BMP280;54895;40.928;14.480;2022-11-20T08:34:00;100134.38;;;17.79
63689;BMP280;54895;40.928;14.480;2022-11-20T08:36:27;100117.31;;;17.86
63689;BMP280;54895;40.928;14.480;2022-11-20T08:38:55;100135.03;;;18.10
63689;BMP280;54895;40.928;14.480;2022-11-20T08:41:22;100155.28;;;18.32
63689;BMP280;54895;40.928;14.480;2022-11-20T08:46:21;100179.00;;;18.45
63689;BMP280;54895;40.928;14.480;2022-11-20T08:48:48;100165.63;;;18.47
63689;BMP280;54895;40.928;14.480;2022-11-20T08:51:15;100156.34;;;18.38
63689;BMP280;54895;40.928;14.480;2022-11-20T08:53:42;100178.63;;;18.71
63689;BMP280;54895;40.928;14.480;2022-11-20T08:56:10;100219.72;;;18.92
63689;BMP280;54895;40.928;14.480;2022-11-20T08:58:38;100210.97;;;18.71
63689;BMP280;54895;40.928;14.480;2022-11-20T09:01:05;100212.41;;;18.72
63689;BMP280;54895;40.928;14.480;2022-11-20T09:03:32;100209.13;;;18.74
63689;BMP280;54895;40.928;14.480;2022-11-20T09:06:01;100207.84;;;18.75
63689;BMP280;54895;40.928;14.480;2022-11-20T09:08:28;100217.44;;;18.77
63689;BMP280;54895;40.928;14.480;2022-11-20T09:10:59;100185.00;;;18.55
63689;BMP280;54895;40.928;14.480;2022-11-20T09:13:29;100188.00;;;18.70
63689;BMP280;54895;40.928;14.480;2022-11-20T09:16:37;100179.25;;;18.49
63689;BMP280;54895;40.928;14.480;2022-11-20T09:19:05;100187.19;;;18.47
63689;BMP280;54895;40.928;14.480;2022-11-20T09:21:32;100184.16;;;18.41
63689;BMP280;54895;40.928;14.480;2022-11-20T09:23:59;100198.75;;;18.38
63689;BMP280;54895;40.928;14.480;2022-11-20T09:26:25;100181.16;;;18.37
63689;BMP280;54895;40.928;14.480;2022-11-20T09:28:52;100194.53;;;18.35
63689;BMP280;54895;40.928;14.480;2022-11-20T09:31:24;100183.38;;;18.29
63689;BMP280;54895;40.928;14.480;2022-11-20T09:33:52;100187.19;;;18.47
63689;BMP280;54895;40.928;14.480;2022-11-20T09:36:19;100185.41;;;18.61
63689;BMP280;54895;40.928;14.480;2022-11-20T09:38:46;100203.97;;;18.77
63689;BMP280;54895;40.928;14.480;2022-11-20T09:41:36;100217.25;;;18.96
63689;BMP280;54895;40.928;14.480;2022-11-20T09:44:40;100245.34;;;19.14
63689;BMP280;54895;40.928;14.480;2022-11-20T09:47:25;100261.78;;;19.30
63689;BMP280;54895;40.928;14.480;2022-11-20T09:49:57;100261.25;;;19.54
63689;BMP280;54895;40.928;14.480;2022-11-20T09:52:52;100277.44;;;19.54
63689;BMP280;54895;40.928;14.480;2022-11-20T09:55:24;100274.53;;;19.50
63689;BMP280;54895;40.928;14.480;2022-11-20T09:57:53;100266.06;;;19.44
63689;BMP280;54895;40.928;14.480;2022-11-20T10:00:21;100290.22;;;19.65
63689;BMP280;54895;40.928;14.480;2022-11-20T10:03:06;100304.09;;;19.71
63689;BMP280;54895;40.928;14.480;2022-11-20T10:05:45;100303.88;;;19.67
63689;BMP280;54895;40.928;14.480;2022-11-20T10:08:21;100292.13;;;19.63
63689;BMP280;54895;40.928;14.480;2022-11-20T10:11:06;100321.34;;;19.89
63689;BMP280;54895;40.928;14.480;2022-11-20T10:24:48;100363.78;;;20.69
63689;BMP280;54895;40.928;14.480;2022-11-20T10:30:13;100339.50;;;20.58
63689;BMP280;54895;40.928;14.480;2022-11-20T10:32:43;100325.03;;;20.53
63689;BMP280;54895;40.928;14.480;2022-11-20T10:35:19;100334.78;;;20.69
63689;BMP280;54895;40.928;14.480;2022-11-20T10:37:50;100335.13;;;20.75
63689;BMP280;54895;40.928;14.480;2022-11-20T10:40:42;100322.56;;;20.57
63689;BMP280;54895;40.928;14.480;2022-11-20T10:43:11;100314.06;;;20.74
63689;BMP280;54895;40.928;14.480;2022-11-20T10:48:27;100290.66;;;20.42
63689;BMP280;54895;40.928;14.480;2022-11-20T10:53:51;100286.16;;;20.58
63689;BMP280;54895;40.928;14.480;2022-11-20T10:59:35;100299.25;;;20.75
63689;BMP280;54895;40.928;14.480;2022-11-20T11:02:29;100287.84;;;21.01
63689;BMP280;54895;40.928;14.480;2022-11-20T11:05:07;100297.22;;;21.25
63689;BMP280;54895;40.928;14.480;2022-11-20T11:07:38;100300.31;;;21.20
63689;BMP280;54895;40.928;14.480;2022-11-20T11:10:18;100286.31;;;21.37
63689;BMP280;54895;40.928;14.480;2022-11-20T11:12:46;100308.66;;;21.62
63689;BMP280;54895;40.928;14.480;2022-11-20T11:15:38;100306.75;;;21.92
63689;BMP280;54895;40.928;14.480;2022-11-20T11:18:09;100303.13;;;22.01
63689;BMP280;54895;40.928;14.480;2022-11-20T11:20:36;100305.06;;;22.12
63689;BMP280;54895;40.928;14.480;2022-11-20T11:23:22;100315.84;;;22.25
63689;BMP280;54895;40.928;14.480;2022-11-20T11:25:57;100323.06;;;22.47
63689;BMP280;54895;40.928;14.480;2022-11-20T11:28:25;100331.00;;;21.90
63689;BMP280;54895;40.928;14.480;2022-11-20T11:30:54;100318.47;;;22.10
63689;BMP280;54895;40.928;14.480;2022-11-20T11:33:26;100325.59;;;22.17
63689;BMP280;54895;40.928;14.480;2022-11-20T11:35:56;100330.78;;;22.39
63689;BMP280;54895;40.928;14.480;2022-11-20T11:38:37;100317.81;;;22.51
63689;BMP280;54895;40.928;14.480;2022-11-20T11:41:07;100306.22;;;22.64
63689;BMP280;54895;40.928;14.480;2022-11-20T11:43:36;100324.06;;;22.69
63689;BMP280;54895;40.928;14.480;2022-11-20T11:49:11;100316.00;;;22.42
63689;BMP280;54895;40.928;14.480;2022-11-20T11:54:38;100316.84;;;23.18
63689;BMP280;54895;40.928;14.480;2022-11-20T12:00:12;100306.50;;;23.15
63689;BMP280;54895;40.928;14.480;2022-11-20T12:07:43;100297.41;;;22.50
63689;BMP280;54895;40.928;14.480;2022-11-20T12:10:19;100290.19;;;22.99
63689;BMP280;54895;40.928;14.480;2022-11-20T12:12:54;100279.69;;;23.07
63689;BMP280;54895;40.928;14.480;2022-11-20T12:15:33;100282.47;;;22.78
63689;BMP280;54895;40.928;14.480;2022-11-20T12:18:00;100277.03;;;22.78
63689;BMP280;54895;40.928;14.480;2022-11-20T12:20:35;100289.16;;;23.06
63689;BMP280;54895;40.928;14.480;2022-11-20T12:23:17;100294.25;;;23.29
63689;BMP280;54895;40.928;14.480;2022-11-20T12:25:53;100278.47;;;23.10
63689;BMP280;54895;40.928;14.480;2022-11-20T12:37:09;100285.81;;;23.23
63689;BMP280;54895;40.928;14.480;2022-11-20T12:39:42;100275.41;;;23.33
63689;BMP280;54895;40.928;14.480;2022-11-20T12:42:40;100278.81;;;23.34
63689;BMP280;54895;40.928;14.480;2022-11-20T12:45:46;100272.25;;;23.54
63689;BMP280;54895;40.928;14.480;2022-11-20T12:51:53;100272.72;;;23.33
63689;BMP280;54895;40.928;14.480;2022-11-20T12:54:14;100261.69;;;23.29
63689;BMP280;54895;40.928;14.480;2022-11-20T12:56:56;100251.53;;;23.14
63689;BMP280;54895;40.928;14.480;2022-11-20T13:05:37;100247.31;;;23.11
63689;BMP280;54895;40.928;14.480;2022-11-20T13:08:25;100238.13;;;23.18
63689;BMP280;54895;40.928;14.480;2022-11-20T13:17:05;100242.56;;;23.27
63689;BMP280;54895;40.928;14.480;2022-11-20T13:19:35;100231.22;;;23.15
63689;BMP280;54895;40.928;14.480;2022-11-20T13:22:02;100239.53;;;23.04
63689;BMP280;54895;40.928;14.480;2022-11-20T13:24:32;100243.91;;;23.11
63689;BMP280;54895;40.928;14.480;2022-11-20T13:27:01;100231.22;;;23.15
63689;BMP280;54895;40.928;14.480;2022-11-20T13:29:28;100237.25;;;23.29
63689;BMP280;54895;40.928;14.480;2022-11-20T13:34:30;100213.59;;;23.32
63689;BMP280;54895;40.928;14.480;2022-11-20T13:36:58;100227.16;;;23.32
63689;BMP280;54895;40.928;14.480;2022-11-20T13:39:30;100228.38;;;23.29
63689;BMP280;54895;40.928;14.480;2022-11-20T13:42:03;100228.41;;;23.13
63689;BMP280;54895;40.928;14.480;2022-11-20T13:45:01;100225.84;;;23.17
63689;BMP280;54895;40.928;14.480;2022-11-20T13:47:30;100214.94;;;23.15
63689;BMP280;54895;40.928;14.480;2022-11-20T13:49:58;100222.63;;;23.21
63689;BMP280;54895;40.928;14.480;2022-11-20T14:00:29;100213.34;;;23.10
63689;BMP280;54895;40.928;14.480;2022-11-20T14:05:36;100196.38;;;22.94
63689;BMP280;54895;40.928;14.480;2022-11-20T14:08:04;100207.72;;;22.60
63689;BMP280;54895;40.928;14.480;2022-11-20T14:10:31;100205.03;;;22.46
63689;BMP280;54895;40.928;14.480;2022-11-20T14:13:10;100203.38;;;22.39
63689;BMP280;54895;40.928;14.480;2022-11-20T14:15:36;100195.97;;;21.98
63689;BMP280;54895;40.928;14.480;2022-11-20T14:18:20;100200.22;;;21.74
63689;BMP280;54895;40.928;14.480;2022-11-20T14:20:48;100202.84;;;21.72
63689;BMP280;54895;40.928;14.480;2022-11-20T14:23:24;100189.72;;;21.66
63689;BMP280;54895;40.928;14.480;2022-11-20T14:25:51;100197.81;;;21.80
63689;BMP280;54895;40.928;14.480;2022-11-20T14:28:26;100202.13;;;21.71
63689;BMP280;54895;40.928;14.480;2022-11-20T14:30:54;100201.22;;;21.40
63689;BMP280;54895;40.928;14.480;2022-11-20T14:33:22;100205.47;;;21.43
63689;BMP280;54895;40.928;14.480;2022-11-20T14:35:53;100204.09;;;21.17
63689;BMP280;54895;40.928;14.480;2022-11-20T14:38:32;100204.53;;;21.38
63689;BMP280;54895;40.928;14.480;2022-11-20T14:41:14;100212.47;;;21.48
63689;BMP280;54895;40.928;14.480;2022-11-20T14:43:45;100214.47;;;21.34
63689;BMP280;54895;40.928;14.480;2022-11-20T14:46:12;100222.09;;;21.51
63689;BMP280;54895;40.928;14.480;2022-11-20T14:48:47;100221.31;;;21.62
63689;BMP280;54895;40.928;14.480;2022-11-20T14:51:33;100213.59;;;20.91
63689;BMP280;54895;40.928;14.480;2022-11-20T14:54:11;100233.13;;;20.28
63689;BMP280;54895;40.928;14.480;2022-11-20T14:56:38;100219.34;;;19.76
63689;BMP280;54895;40.928;14.480;2022-11-20T14:59:05;100223.22;;;19.27
63689;BMP280;54895;40.928;14.480;2022-11-20T15:01:33;100228.13;;;19.19
63689;BMP280;54895;40.928;14.480;2022-11-20T15:04:04;100226.41;;;18.91
63689;BMP280;54895;40.928;14.480;2022-11-20T15:06:31;100221.44;;;18.56
63689;BMP280;54895;40.928;14.480;2022-11-20T15:08:57;100228.00;;;18.53
63689;BMP280;54895;40.928;14.480;2022-11-20T15:11:29;100231.47;;;18.44
63689;BMP280;54895;40.928;14.480;2022-11-20T15:13:58;100242.28;;;18.34
63689;BMP280;54895;40.928;14.480;2022-11-20T15:16:27;100226.03;;;18.02
63689;BMP280;54895;40.928;14.480;2022-11-20T15:18:54;100234.41;;;18.27
63689;BMP280;54895;40.928;14.480;2022-11-20T15:21:21;100230.38;;;18.37
63689;BMP280;54895;40.928;14.480;2022-11-20T15:23:48;100231.22;;;18.40
63689;BMP280;54895;40.928;14.480;2022-11-20T15:26:25;100228.81;;;18.34
63689;BMP280;54895;40.928;14.480;2022-11-20T15:28:52;100239.19;;;18.07
63689;BMP280;54895;40.928;14.480;2022-11-20T15:31:21;100242.75;;;18.00
63689;BMP280;54895;40.928;14.480;2022-11-20T15:33:49;100241.28;;;17.78
63689;BMP280;54895;40.928;14.480;2022-11-20T15:36:15;100249.97;;;18.07